Time;durP1;ratioP1;P1;durP2;ratioP2;P2;SDS_P1;SDS_P2;PMS_P1;PMS_P2;Temp;Humidity;BMP_temperature;BMP_pressure;BME280_temperature;BME280_humidity;BME280_pressure;Samples;Min_cycle;Max_cycle;Signal;HPM_P1;HPM_P2
2023/09/16 00:01:44;;;;;;;4.40;3.93;;;17.30;94.70;;;;;;4991545;28;20485;-65
2023/09/16 00:04:11;;;;;;;6.47;3.83;;;17.10;94.90;;;;;;4992508;28;20867;-64
2023/09/16 00:06:39;;;;;;;4.20;3.10;;;16.90;95.20;;;;;;4985568;28;20582;-65
2023/09/16 00:09:06;;;;;;;3.90;2.93;;;16.80;95.10;;;;;;4998700;28;20477;-64
2023/09/16 00:11:33;;;;;;;4.47;3.40;;;16.80;95.30;;;;;;4991763;28;20490;-65
2023/09/16 00:14:00;;;;;;;5.13;3.60;;;16.80;95.00;;;;;;4992655;28;20488;-65
2023/09/16 00:16:26;;;;;;;6.30;4.50;;;16.80;95.10;;;;;;4992780;28;20486;-65
2023/09/16 00:18:53;;;;;;;4.13;3.60;;;16.90;94.90;;;;;;4989388;28;21066;-65
2023/09/16 00:21:20;;;;;;;6.97;5.13;;;16.90;95.00;;;;;;5000761;28;20522;-65
2023/09/16 00:23:48;;;;;;;5.73;3.97;;;16.90;95.20;;;;;;4991939;28;20548;-65
2023/09/16 00:26:15;;;;;;;6.40;4.03;;;16.90;95.30;;;;;;4996457;28;20688;-65
2023/09/16 00:28:42;;;;;;;7.90;4.67;;;16.80;95.70;;;;;;4992687;28;21152;-65
2023/09/16 00:31:11;;;;;;;13.13;4.30;;;16.80;95.10;;;;;;4992956;28;20628;-65
2023/09/16 00:33:38;;;;;;;5.97;3.60;;;16.80;95.30;;;;;;4993353;28;20988;-65
2023/09/16 00:36:05;;;;;;;5.93;4.10;;;16.80;95.00;;;;;;4990709;28;21276;-65
2023/09/16 00:38:31;;;;;;;6.33;3.40;;;16.80;94.70;;;;;;4996545;28;20486;-65
2023/09/16 00:41:00;;;;;;;4.50;3.30;;;16.80;94.80;;;;;;4992050;28;20482;-65
2023/09/16 00:43:26;;;;;;;4.50;3.27;;;16.80;94.70;;;;;;4993350;28;20474;-65
2023/09/16 00:45:53;;;;;;;6.37;3.30;;;16.60;94.80;;;;;;4992579;28;20695;-65
2023/09/16 00:48:20;;;;;;;6.10;4.50;;;16.60;94.90;;;;;;4991279;28;20472;-65
2023/09/16 00:50:48;;;;;;;4.80;3.73;;;16.40;95.10;;;;;;4991786;28;20493;-65
2023/09/16 00:53:16;;;;;;;5.30;3.80;;;16.40;95.10;;;;;;4991495;28;20846;-65
2023/09/16 00:55:43;;;;;;;6.73;4.10;;;16.40;95.10;;;;;;4991281;28;21020;-65
2023/09/16 00:58:12;;;;;;;6.50;4.17;;;16.30;95.30;;;;;;4994954;28;20500;-65
2023/09/16 01:00:39;;;;;;;4.43;3.27;;;16.30;94.90;;;;;;4990730;28;20530;-65
2023/09/16 01:03:06;;;;;;;8.13;4.43;;;16.30;95.00;;;;;;4989890;28;20567;-65
2023/09/16 01:05:34;;;;;;;7.00;4.60;;;16.30;95.20;;;;;;4992002;28;21051;-65
2023/09/16 01:08:01;;;;;;;5.50;3.57;;;16.20;95.20;;;;;;4990728;28;20480;-64
2023/09/16 01:10:28;;;;;;;6.30;4.50;;;16.20;95.10;;;;;;4979435;28;20498;-65
2023/09/16 01:12:56;;;;;;;6.60;3.93;;;16.20;95.10;;;;;;4984338;28;20467;-65
2023/09/16 01:15:31;;;;;;;8.83;4.17;;;16.10;95.10;;;;;;4976081;28;20469;-65
2023/09/16 01:18:07;;;;;;;6.27;4.10;;;16.00;95.10;;;;;;4982010;28;20470;-64
2023/09/16 01:20:38;;;;;;;6.87;3.77;;;16.00;95.20;;;;;;4982602;28;20478;-65
2023/09/16 01:23:05;;;;;;;6.07;4.60;;;16.00;95.60;;;;;;4982899;28;20568;-64
2023/09/16 01:25:34;;;;;;;4.20;3.00;;;16.00;95.50;;;;;;4982918;28;20486;-64
2023/09/16 01:28:01;;;;;;;8.23;4.40;;;16.00;95.20;;;;;;4991768;28;20499;-64
2023/09/16 01:30:30;;;;;;;6.17;3.87;;;15.80;95.40;;;;;;4983562;28;20470;-64
2023/09/16 01:33:03;;;;;;;5.27;3.90;;;15.70;95.80;;;;;;4983857;28;20513;-65
2023/09/16 01:35:35;;;;;;;6.73;4.57;;;15.50;96.90;;;;;;4993049;28;20538;-64
2023/09/16 01:38:03;;;;;;;5.43;3.73;;;15.50;97.00;;;;;;4988891;28;20502;-64
2023/09/16 01:40:30;;;;;;;4.63;3.57;;;15.50;96.70;;;;;;4994790;28;20930;-65
2023/09/16 01:42:59;;;;;;;4.27;3.67;;;15.60;96.40;;;;;;4982822;28;20474;-65
2023/09/16 01:45:28;;;;;;;4.73;3.63;;;15.60;95.90;;;;;;4971771;28;20498;-64
2023/09/16 01:47:55;;;;;;;7.30;4.50;;;15.70;95.90;;;;;;4976730;28;20469;-65
2023/09/16 01:50:21;;;;;;;3.63;2.90;;;15.60;95.90;;;;;;4997004;28;20492;-65
2023/09/16 01:52:48;;;;;;;6.37;4.27;;;15.70;95.70;;;;;;4985423;28;20479;-64
2023/09/16 01:55:15;;;;;;;7.50;4.23;;;15.70;95.80;;;;;;4993063;28;20481;-64
2023/09/16 01:57:42;;;;;;;7.63;4.93;;;15.80;95.50;;;;;;4987628;28;20509;-65
2023/09/16 02:00:11;;;;;;;6.87;4.10;;;15.80;95.60;;;;;;4986354;28;20478;-64
2023/09/16 02:02:38;;;;;;;5.67;4.33;;;15.70;95.50;;;;;;4982643;28;20487;-65
2023/09/16 02:05:05;;;;;;;3.93;3.30;;;15.70;95.40;;;;;;4990411;28;20486;-64
2023/09/16 02:07:32;;;;;;;4.77;4.00;;;15.50;95.50;;;;;;4985383;28;20469;-64
2023/09/16 02:09:59;;;;;;;5.47;3.80;;;15.50;95.50;;;;;;4982982;28;21102;-65
2023/09/16 02:12:26;;;;;;;6.60;4.20;;;15.40;95.30;;;;;;4985327;28;20470;-64
2023/09/16 02:14:53;;;;;;;7.27;4.90;;;15.40;95.40;;;;;;4983506;28;20502;-64
2023/09/16 02:17:21;;;;;;;4.10;3.67;;;15.40;95.30;;;;;;4983900;28;20486;-64
2023/09/16 02:19:48;;;;;;;5.73;3.70;;;15.40;95.20;;;;;;4989392;28;21006;-64
2023/09/16 02:22:15;;;;;;;5.67;4.40;;;15.40;95.40;;;;;;4986120;28;20477;-64
2023/09/16 02:24:42;;;;;;;5.43;3.40;;;15.40;95.40;;;;;;5008282;28;20485;-64
2023/09/16 02:27:09;;;;;;;4.13;3.20;;;15.40;95.40;;;;;;4988600;28;20875;-64
2023/09/16 02:29:35;;;;;;;7.97;3.63;;;15.50;95.40;;;;;;4990122;28;20520;-64
2023/09/16 02:32:02;;;;;;;12.73;3.53;;;15.40;95.20;;;;;;4984151;28;20486;-64
2023/09/16 02:34:31;;;;;;;4.13;3.30;;;15.40;95.10;;;;;;4988753;28;20465;-65
2023/09/16 02:36:58;;;;;;;5.00;4.20;;;15.40;95.20;;;;;;4993095;28;20767;-65
2023/09/16 02:39:25;;;;;;;8.03;4.57;;;15.40;95.20;;;;;;4990263;28;20482;-64
2023/09/16 02:41:52;;;;;;;6.10;3.73;;;15.30;95.30;;;;;;4982284;28;20496;-64
2023/09/16 02:44:19;;;;;;;4.53;3.20;;;15.30;95.40;;;;;;5001125;28;20623;-64
2023/09/16 02:46:46;;;;;;;6.03;3.57;;;15.30;95.30;;;;;;4985674;28;20502;-64
2023/09/16 02:49:13;;;;;;;6.33;4.40;;;15.20;95.10;;;;;;4983579;28;21040;-64
2023/09/16 02:51:41;;;;;;;7.27;4.50;;;15.20;95.00;;;;;;4979475;28;20494;-64
2023/09/16 02:54:07;;;;;;;3.87;3.50;;;15.20;95.20;;;;;;4984381;28;20873;-66
2023/09/16 02:56:34;;;;;;;5.60;3.43;;;15.10;95.10;;;;;;5000701;28;20481;-66
2023/09/16 02:59:02;;;;;;;7.07;4.20;;;15.10;95.30;;;;;;4992022;28;20508;-66
2023/09/16 03:01:28;;;;;;;14.30;4.40;;;15.00;95.50;;;;;;4979542;28;20485;-66
2023/09/16 03:03:55;;;;;;;5.53;4.10;;;15.00;95.80;;;;;;4985122;28;20493;-64
2023/09/16 03:06:23;;;;;;;4.30;3.80;;;14.90;95.70;;;;;;4980120;28;20486;-64
2023/09/16 03:08:51;;;;;;;6.13;3.43;;;14.90;95.60;;;;;;4982876;28;20839;-64
2023/09/16 03:11:19;;;;;;;5.43;4.27;;;14.90;95.40;;;;;;4985153;28;20485;-64
2023/09/16 03:13:45;;;;;;;6.50;4.00;;;14.90;95.30;;;;;;4989471;28;20978;-64
2023/09/16 03:16:17;;;;;;;4.60;3.57;;;14.90;95.50;;;;;;4996174;28;20483;-64
2023/09/16 03:18:46;;;;;;;5.53;4.10;;;14.90;95.30;;;;;;4981916;28;20485;-64
2023/09/16 03:21:13;;;;;;;6.53;4.03;;;15.00;95.30;;;;;;4986825;28;21237;-64
2023/09/16 03:23:40;;;;;;;6.17;4.00;;;14.90;95.30;;;;;;4981671;28;20473;-65
2023/09/16 03:26:10;;;;;;;5.43;3.20;;;14.80;95.30;;;;;;4988906;28;20843;-65
2023/09/16 03:28:41;;;;;;;6.73;3.90;;;14.70;95.20;;;;;;4992206;28;20469;-64
2023/09/16 03:31:07;;;;;;;4.40;2.97;;;14.60;95.10;;;;;;4985388;28;20485;-64
2023/09/16 03:33:34;;;;;;;5.93;4.23;;;14.50;95.60;;;;;;4977852;28;21038;-65
2023/09/16 03:36:02;;;;;;;6.57;4.13;;;14.50;95.80;;;;;;4985782;28;20487;-65
2023/09/16 03:38:31;;;;;;;6.17;4.20;;;14.50;95.60;;;;;;4981842;28;20512;-65
2023/09/16 03:40:58;;;;;;;6.40;4.50;;;14.60;95.50;;;;;;4989603;28;20522;-64
2023/09/16 03:43:26;;;;;;;6.07;4.23;;;14.60;95.50;;;;;;4986958;28;20481;-64
2023/09/16 03:45:53;;;;;;;4.57;3.30;;;14.60;95.30;;;;;;4990118;28;20832;-64
2023/09/16 03:48:20;;;;;;;7.70;4.47;;;14.70;95.50;;;;;;4988424;28;20489;-64
2023/09/16 03:50:47;;;;;;;5.33;3.90;;;14.70;95.40;;;;;;5004241;28;20493;-64
2023/09/16 03:53:14;;;;;;;6.53;3.83;;;14.70;95.30;;;;;;4989555;28;20505;-65
2023/09/16 03:55:40;;;;;;;6.47;4.53;;;14.70;95.20;;;;;;4986440;28;20479;-64
2023/09/16 03:58:07;;;;;;;4.47;3.90;;;14.70;95.10;;;;;;4995848;28;20759;-64
2023/09/16 04:00:35;;;;;;;5.17;3.73;;;14.70;95.30;;;;;;4989282;28;20525;-64
2023/09/16 04:03:02;;;;;;;9.13;4.10;;;14.70;95.10;;;;;;4999281;28;20851;-65
2023/09/16 04:05:29;;;;;;;3.83;3.40;;;14.70;95.20;;;;;;4987325;28;20473;-65
2023/09/16 04:07:56;;;;;;;5.23;4.27;;;14.70;95.20;;;;;;4988435;28;20486;-65
2023/09/16 04:10:22;;;;;;;3.83;3.37;;;14.60;95.20;;;;;;4986725;28;20471;-65
2023/09/16 04:12:49;;;;;;;5.43;3.00;;;14.50;95.20;;;;;;4984090;28;20475;-65
2023/09/16 04:15:16;;;;;;;3.33;3.00;;;14.40;95.20;;;;;;4987333;28;20489;-65
2023/09/16 04:17:44;;;;;;;3.20;2.90;;;14.40;95.20;;;;;;4985587;28;20486;-65
2023/09/16 04:20:11;;;;;;;4.50;3.10;;;14.30;95.00;;;;;;4981554;28;20590;-64
2023/09/16 04:22:38;;;;;;;5.33;3.30;;;14.30;95.10;;;;;;4981626;28;20490;-64
2023/09/16 04:25:06;;;;;;;3.57;3.07;;;14.30;95.20;;;;;;4993821;28;20876;-64
2023/09/16 04:27:32;;;;;;;5.50;3.93;;;14.40;95.30;;;;;;4985643;28;20482;-64
2023/09/16 04:29:59;;;;;;;3.90;3.30;;;14.30;95.30;;;;;;5001033;28;20478;-64
2023/09/16 04:32:26;;;;;;;5.07;3.87;;;14.40;95.20;;;;;;4983663;28;20836;-64
2023/09/16 04:34:58;;;;;;;6.10;3.90;;;14.30;95.20;;;;;;4991670;28;20471;-65
2023/09/16 04:37:25;;;;;;;4.97;3.23;;;14.30;95.10;;;;;;4986547;28;20518;-64
2023/09/16 04:39:52;;;;;;;4.23;3.80;;;14.30;95.30;;;;;;4988562;28;20471;-64
2023/09/16 04:42:19;;;;;;;3.97;3.40;;;14.20;95.50;;;;;;4990391;28;20476;-64
2023/09/16 04:44:48;;;;;;;4.23;3.43;;;14.10;95.60;;;;;;4989583;28;20596;-64
2023/09/16 04:47:15;;;;;;;5.33;3.80;;;14.10;95.40;;;;;;4989671;28;20807;-64
2023/09/16 04:49:42;;;;;;;3.87;2.87;;;14.00;95.30;;;;;;4982651;28;20588;-64
2023/09/16 04:52:10;;;;;;;4.23;3.83;;;14.00;95.40;;;;;;4995242;28;20480;-64
2023/09/16 04:54:37;;;;;;;4.10;2.97;;;14.00;95.30;;;;;;4983514;28;20486;-64
2023/09/16 04:57:04;;;;;;;6.07;4.83;;;13.90;95.40;;;;;;4987843;28;20482;-64
2023/09/16 04:59:32;;;;;;;7.20;3.63;;;13.90;95.40;;;;;;4978793;28;20481;-64
2023/09/16 05:01:59;;;;;;;5.03;3.30;;;13.90;95.40;;;;;;4989734;28;20478;-64
2023/09/16 05:04:26;;;;;;;6.83;3.10;;;14.00;95.40;;;;;;4997934;28;20471;-64
2023/09/16 05:06:52;;;;;;;5.73;3.67;;;14.00;95.60;;;;;;4991675;28;20469;-64
2023/09/16 05:09:22;;;;;;;4.80;3.40;;;13.70;95.80;;;;;;4991290;28;20464;-64
2023/09/16 05:11:49;;;;;;;8.43;4.03;;;13.60;96.30;;;;;;4996629;28;21038;-64
2023/09/16 05:14:16;;;;;;;4.03;3.50;;;13.50;96.30;;;;;;4987676;28;20478;-64
2023/09/16 05:16:43;;;;;;;5.70;3.90;;;13.50;96.40;;;;;;4994163;28;20472;-64
2023/09/16 05:19:10;;;;;;;6.83;4.77;;;13.50;97.50;;;;;;4984163;28;20488;-65
2023/09/16 05:21:36;;;;;;;5.50;3.80;;;13.40;97.50;;;;;;4986127;28;20483;-64
2023/09/16 05:24:03;;;;;;;6.73;3.90;;;13.50;97.60;;;;;;4992948;28;20714;-64
2023/09/16 05:26:31;;;;;;;6.33;4.30;;;13.60;97.40;;;;;;4987131;28;20488;-64
2023/09/16 05:28:58;;;;;;;4.47;3.33;;;13.70;97.30;;;;;;4982179;28;21070;-64
2023/09/16 05:31:25;;;;;;;5.70;4.10;;;13.80;97.00;;;;;;4999211;28;21661;-64
2023/09/16 05:33:52;;;;;;;7.03;4.83;;;13.90;96.70;;;;;;4991880;28;20485;-64
2023/09/16 05:36:20;;;;;;;7.33;4.70;;;13.90;96.60;;;;;;4982375;28;20479;-65
2023/09/16 05:38:46;;;;;;;6.67;4.73;;;13.80;96.80;;;;;;4985351;28;20517;-64
2023/09/16 05:41:13;;;;;;;4.17;3.73;;;13.90;96.90;;;;;;4994220;28;21247;-64
2023/09/16 05:43:41;;;;;;;5.13;3.30;;;14.00;96.80;;;;;;4987781;28;20490;-65
2023/09/16 05:46:08;;;;;;;12.33;4.07;;;14.10;96.70;;;;;;4989571;28;20492;-64
2023/09/16 05:48:35;;;;;;;8.30;5.27;;;14.10;96.50;;;;;;4998080;28;20477;-64
2023/09/16 05:51:03;;;;;;;6.80;4.00;;;14.20;96.40;;;;;;4987654;28;20490;-65
2023/09/16 05:53:32;;;;;;;5.47;3.70;;;14.30;96.50;;;;;;4984078;28;20541;-64
2023/09/16 05:56:02;;;;;;;4.53;3.70;;;14.30;96.50;;;;;;4994649;28;20517;-64
2023/09/16 05:58:29;;;;;;;6.40;4.27;;;14.50;96.60;;;;;;4981339;28;20481;-64
2023/09/16 06:00:57;;;;;;;9.80;4.40;;;14.50;96.50;;;;;;4991129;28;20485;-64
2023/09/16 06:03:24;;;;;;;7.70;4.13;;;14.60;96.50;;;;;;4976900;28;20682;-65
2023/09/16 06:05:57;;;;;;;6.23;4.50;;;14.70;96.40;;;;;;4982325;28;20477;-64
2023/09/16 06:08:24;;;;;;;6.63;3.70;;;14.70;96.50;;;;;;4980878;28;20568;-64
2023/09/16 06:10:50;;;;;;;7.00;5.00;;;14.70;96.60;;;;;;4988240;28;20474;-65
2023/09/16 06:13:17;;;;;;;6.87;4.87;;;14.70;96.70;;;;;;4983438;28;21068;-65
2023/09/16 06:15:44;;;;;;;11.60;4.90;;;14.80;96.80;;;;;;4989201;28;21196;-64
2023/09/16 06:18:12;;;;;;;6.60;4.50;;;15.10;97.10;;;;;;4990345;28;20929;-64
2023/09/16 06:20:40;;;;;;;11.00;4.83;;;15.30;97.10;;;;;;4978718;28;20755;-65
2023/09/16 06:23:06;;;;;;;7.90;5.67;;;15.70;97.70;;;;;;4982788;28;20489;-64
2023/09/16 06:25:34;;;;;;;12.40;6.23;;;16.20;97.80;;;;;;4994475;28;20849;-65
2023/09/16 06:28:03;;;;;;;7.60;5.57;;;16.80;97.10;;;;;;4991089;28;20506;-65
2023/09/16 06:30:30;;;;;;;6.93;4.80;;;17.30;96.70;;;;;;4982242;28;20478;-65
2023/09/16 06:32:58;;;;;;;10.10;6.13;;;17.90;96.40;;;;;;4978168;28;20474;-66
2023/09/16 06:35:26;;;;;;;9.73;5.50;;;18.60;96.30;;;;;;4990867;28;20495;-65
2023/09/16 06:37:53;;;;;;;6.80;5.43;;;19.50;95.80;;;;;;4987340;28;20719;-65
2023/09/16 06:40:20;;;;;;;7.20;4.60;;;20.60;95.00;;;;;;4994215;28;20491;-65
2023/09/16 06:42:47;;;;;;;7.30;5.67;;;21.50;94.10;;;;;;5001686;28;20477;-65
2023/09/16 06:45:14;;;;;;;5.80;4.77;;;22.40;93.30;;;;;;4989113;28;20487;-65
2023/09/16 06:47:41;;;;;;;8.10;5.97;;;23.20;92.80;;;;;;4988732;28;20494;-65
2023/09/16 06:50:09;;;;;;;7.80;5.70;;;24.00;92.10;;;;;;4982508;28;20912;-65
2023/09/16 06:52:37;;;;;;;8.13;7.03;;;24.60;91.00;;;;;;4987840;28;20481;-65
2023/09/16 06:55:05;;;;;;;6.03;5.30;;;25.30;90.40;;;;;;4984442;28;20501;-65
2023/09/16 06:57:32;;;;;;;7.47;4.63;;;25.60;89.30;;;;;;4987539;28;20575;-65
2023/09/16 06:59:59;;;;;;;8.67;5.20;;;26.00;88.90;;;;;;4977327;28;20482;-65
2023/09/16 07:02:26;;;;;;;6.53;5.23;;;26.50;88.50;;;;;;4992189;28;20835;-65
2023/09/16 07:04:55;;;;;;;5.33;4.63;;;26.90;87.40;;;;;;4991848;28;20488;-65
2023/09/16 07:07:23;;;;;;;9.97;5.23;;;27.30;86.80;;;;;;4985692;28;20559;-65
2023/09/16 07:09:53;;;;;;;8.20;6.47;;;27.70;85.90;;;;;;4978770;28;20478;-65
2023/09/16 07:12:20;;;;;;;5.77;5.27;;;28.00;85.60;;;;;;4986004;28;21064;-65
2023/09/16 07:14:47;;;;;;;6.30;5.20;;;28.20;86.10;;;;;;4991261;28;20819;-65
2023/09/16 07:17:14;;;;;;;7.10;5.40;;;28.40;85.30;;;;;;4990507;28;20487;-65
2023/09/16 07:20:38;;;;;;;7.50;5.30;;;28.60;84.80;;;;;;4989700;28;20992;-65
2023/09/16 07:24:01;;;;;;;7.27;5.97;;;28.70;84.20;;;;;;4981617;28;20505;-65
2023/09/16 07:26:29;;;;;;;8.77;5.77;;;28.80;85.00;;;;;;4989528;28;20953;-65
2023/09/16 07:28:57;;;;;;;8.23;5.43;;;28.70;85.50;;;;;;4994222;28;20477;-65
2023/09/16 07:31:24;;;;;;;8.67;5.93;;;28.60;85.50;;;;;;4987378;28;20478;-65
2023/09/16 07:33:51;;;;;;;7.03;6.33;;;28.60;85.20;;;;;;4976927;28;20489;-66
2023/09/16 07:36:18;;;;;;;10.00;5.33;;;28.50;85.10;;;;;;4994578;28;20474;-66
2023/09/16 07:38:45;;;;;;;8.00;5.13;;;28.40;85.10;;;;;;4992195;28;20484;-66
2023/09/16 07:41:11;;;;;;;25.63;7.40;;;28.20;85.30;;;;;;4984011;28;20513;-66
2023/09/16 07:43:39;;;;;;;8.90;6.30;;;28.00;87.10;;;;;;5000812;28;20581;-67
2023/09/16 07:46:06;;;;;;;11.13;6.77;;;27.90;87.20;;;;;;4991731;28;20664;-67
2023/09/16 07:48:33;;;;;;;7.30;6.43;;;27.70;88.20;;;;;;4990157;28;20497;-67
2023/09/16 07:51:00;;;;;;;8.67;5.90;;;27.60;89.30;;;;;;4979083;28;20510;-67
2023/09/16 07:53:27;;;;;;;10.43;7.67;;;27.50;88.70;;;;;;4983407;28;20549;-67
2023/09/16 07:55:53;;;;;;;8.53;6.43;;;27.50;90.30;;;;;;4988798;28;21002;-67
2023/09/16 07:58:20;;;;;;;10.37;6.70;;;27.40;90.00;;;;;;4989634;28;20456;-67
2023/09/16 08:00:49;;;;;;;10.50;7.20;;;27.30;89.80;;;;;;4994285;28;20465;-67
2023/09/16 08:03:16;;;;;;;6.87;5.73;;;27.30;90.50;;;;;;4989618;28;20472;-67
2023/09/16 08:05:44;;;;;;;7.17;6.43;;;27.20;90.40;;;;;;4991639;28;20467;-67
2023/09/16 08:08:11;;;;;;;8.37;6.10;;;27.20;90.40;;;;;;4994652;28;20439;-67
2023/09/16 08:10:38;;;;;;;8.10;6.73;;;27.20;90.50;;;;;;4990469;28;20482;-67
2023/09/16 08:13:04;;;;;;;8.20;6.43;;;27.20;90.20;;;;;;4981238;28;20493;-67
2023/09/16 08:15:31;;;;;;;8.10;6.73;;;27.10;90.00;;;;;;4992004;28;20486;-67
2023/09/16 08:17:59;;;;;;;7.70;6.10;;;27.20;90.20;;;;;;4989881;28;20933;-67
2023/09/16 08:20:26;;;;;;;6.60;5.90;;;27.20;90.80;;;;;;4993542;28;20475;-67
2023/09/16 08:22:53;;;;;;;10.37;7.70;;;27.20;90.30;;;;;;4984805;28;20894;-67
2023/09/16 08:25:21;;;;;;;8.30;5.80;;;27.30;90.70;;;;;;4979004;28;20508;-67
2023/09/16 08:27:47;;;;;;;9.03;6.77;;;27.30;90.90;;;;;;4987539;28;20953;-67
2023/09/16 08:30:14;;;;;;;9.93;7.47;;;27.40;91.70;;;;;;4985666;28;20817;-67
2023/09/16 08:32:41;;;;;;;8.90;6.60;;;27.40;91.60;;;;;;4988912;28;20463;-67
2023/09/16 08:35:09;;;;;;;7.77;6.10;;;27.50;91.60;;;;;;4997892;28;20492;-67
2023/09/16 08:37:36;;;;;;;8.97;6.63;;;27.60;91.10;;;;;;4995674;28;20490;-67
2023/09/16 08:40:03;;;;;;;9.77;8.17;;;27.70;91.90;;;;;;4985432;28;20453;-67
2023/09/16 08:42:37;;;;;;;9.53;8.27;;;27.60;90.80;;;;;;4983937;28;20461;-67
2023/09/16 08:45:06;;;;;;;12.07;7.30;;;27.60;91.30;;;;;;4987889;28;20535;-67
2023/09/16 08:47:35;;;;;;;12.93;6.70;;;27.70;91.80;;;;;;4999080;28;20558;-67
2023/09/16 08:50:06;;;;;;;10.10;6.37;;;27.90;91.40;;;;;;4998665;28;20458;-67
2023/09/16 08:52:42;;;;;;;8.90;6.50;;;28.00;91.80;;;;;;4985570;28;20850;-67
2023/09/16 08:55:12;;;;;;;11.03;6.93;;;28.10;91.20;;;;;;4993760;28;20500;-65
2023/09/16 08:57:40;;;;;;;8.10;6.30;;;28.20;91.20;;;;;;4998661;28;20503;-65
2023/09/16 09:00:08;;;;;;;10.27;7.80;;;28.20;91.20;;;;;;4989951;28;21000;-66
2023/09/16 09:02:36;;;;;;;13.60;7.67;;;28.40;91.70;;;;;;4988107;28;20523;-66
2023/09/16 09:05:06;;;;;;;12.53;7.80;;;28.60;91.90;;;;;;5005872;28;20755;-66
2023/09/16 09:07:37;;;;;;;7.80;6.80;;;28.80;91.40;;;;;;4981926;28;20592;-65
2023/09/16 09:10:05;;;;;;;8.80;7.33;;;28.90;91.50;;;;;;4987005;28;20487;-66
2023/09/16 09:12:34;;;;;;;6.97;6.20;;;28.90;90.90;;;;;;4993447;28;20464;-65
2023/09/16 09:15:05;;;;;;;8.10;6.30;;;28.90;91.50;;;;;;4981687;28;20487;-65
2023/09/16 09:17:38;;;;;;;8.50;6.30;;;28.90;90.00;;;;;;4989854;28;20489;-66
2023/09/16 09:20:09;;;;;;;7.10;6.03;;;28.90;90.80;;;;;;4987605;28;20866;-66
2023/09/16 09:22:39;;;;;;;7.73;6.50;;;28.90;91.40;;;;;;4989628;28;21047;-66
2023/09/16 09:25:07;;;;;;;7.47;6.07;;;29.00;91.10;;;;;;4998308;28;20869;-65
2023/09/16 09:27:34;;;;;;;10.67;7.30;;;29.30;91.30;;;;;;4984212;28;20491;-66
2023/09/16 09:30:04;;;;;;;8.00;6.60;;;29.40;91.50;;;;;;4990770;28;21883;-66
2023/09/16 09:32:32;;;;;;;7.20;6.50;;;29.60;91.00;;;;;;5003483;28;20801;-66
2023/09/16 09:34:59;;;;;;;5.73;5.17;;;29.80;90.70;;;;;;4994078;28;20480;-65
2023/09/16 09:37:25;;;;;;;6.13;5.40;;;29.50;90.00;;;;;;4982941;28;20458;-65
2023/09/16 09:40:06;;;;;;;8.70;6.40;;;29.50;90.60;;;;;;4990293;28;21008;-65
2023/09/16 09:42:33;;;;;;;7.13;5.77;;;29.40;89.00;;;;;;4981893;28;20485;-65
2023/09/16 09:45:02;;;;;;;7.10;5.70;;;29.30;87.40;;;;;;4979112;28;20451;-65
2023/09/16 09:47:30;;;;;;;7.57;5.80;;;29.30;88.10;;;;;;5012446;28;20468;-65
2023/09/16 09:49:56;;;;;;;7.30;5.03;;;28.80;89.50;;;;;;4983287;28;20475;-65
2023/09/16 09:52:23;;;;;;;6.63;5.60;;;28.80;90.10;;;;;;4980104;28;20453;-65
2023/09/16 09:54:52;;;;;;;5.30;4.80;;;29.00;91.00;;;;;;4990120;28;20489;-65
2023/09/16 09:57:20;;;;;;;6.17;5.37;;;28.90;89.70;;;;;;4982425;28;20468;-65
2023/09/16 09:59:47;;;;;;;7.70;6.87;;;28.90;90.00;;;;;;5002582;28;20919;-65
2023/09/16 10:02:14;;;;;;;4.83;4.43;;;29.00;90.60;;;;;;4981992;28;21458;-65
2023/09/16 10:04:41;;;;;;;6.60;5.83;;;29.00;88.70;;;;;;4980592;28;20480;-65
2023/09/16 10:07:08;;;;;;;5.40;4.87;;;28.80;88.40;;;;;;4984049;28;20485;-65
2023/09/16 10:09:35;;;;;;;7.60;5.40;;;28.80;90.20;;;;;;5005790;28;20478;-65
2023/09/16 10:12:03;;;;;;;5.20;4.70;;;29.20;90.40;;;;;;4989705;28;20848;-65
2023/09/16 10:14:32;;;;;;;5.87;5.30;;;29.10;88.70;;;;;;4986037;28;20444;-65
2023/09/16 10:16:59;;;;;;;4.60;4.20;;;29.20;88.90;;;;;;4991925;28;20460;-65
2023/09/16 10:19:27;;;;;;;5.17;4.67;;;29.20;87.80;;;;;;4981457;28;20864;-65
2023/09/16 10:21:54;;;;;;;5.13;4.63;;;29.00;87.50;;;;;;4994707;28;21198;-65
2023/09/16 10:24:21;;;;;;;6.67;5.20;;;28.80;88.80;;;;;;4989005;28;20602;-65
2023/09/16 10:26:49;;;;;;;7.07;5.70;;;28.70;90.00;;;;;;4988718;28;20464;-65
2023/09/16 10:29:18;;;;;;;5.37;4.80;;;28.50;90.00;;;;;;4990263;28;20479;-65
2023/09/16 10:31:46;;;;;;;6.07;5.47;;;28.30;91.10;;;;;;4987264;28;20483;-64
2023/09/16 10:34:13;;;;;;;6.13;5.53;;;28.30;90.00;;;;;;4989974;28;20468;-64
2023/09/16 10:36:40;;;;;;;4.67;4.17;;;28.30;90.40;;;;;;4981083;28;20449;-64
2023/09/16 10:39:07;;;;;;;6.97;5.67;;;28.50;90.60;;;;;;4985530;28;20491;-65
2023/09/16 10:41:35;;;;;;;5.23;4.83;;;28.70;91.10;;;;;;4985977;28;20472;-64
2023/09/16 10:44:04;;;;;;;7.93;6.17;;;28.60;89.20;;;;;;4992862;28;20483;-65
2023/09/16 10:46:34;;;;;;;6.20;4.60;;;28.70;89.70;;;;;;4976079;28;20808;-65
2023/09/16 10:49:02;;;;;;;5.80;4.20;;;28.90;90.60;;;;;;4980909;28;20926;-64
2023/09/16 10:51:34;;;;;;;7.80;4.90;;;29.10;90.00;;;;;;4970023;28;20511;-64
2023/09/16 10:54:09;;;;;;;5.00;3.93;;;29.20;88.90;;;;;;5002562;28;20809;-63
2023/09/16 10:56:42;;;;;;;6.90;4.70;;;29.40;89.20;;;;;;4977538;28;20444;-65
2023/09/16 10:59:13;;;;;;;7.23;4.67;;;29.50;90.00;;;;;;4992146;28;20456;-65
2023/09/16 11:01:47;;;;;;;5.40;4.73;;;29.60;90.30;;;;;;4981606;28;20546;-65
2023/09/16 11:04:17;;;;;;;5.03;4.53;;;29.80;88.70;;;;;;4992485;28;20469;-64
2023/09/16 11:06:47;;;;;;;5.73;4.57;;;29.80;88.60;;;;;;4994135;28;20567;-65
2023/09/16 11:09:15;;;;;;;6.23;5.63;;;29.90;88.30;;;;;;4986683;28;20482;-65
2023/09/16 11:11:42;;;;;;;5.37;4.90;;;29.90;87.30;;;;;;4989827;28;20473;-66
2023/09/16 11:14:11;;;;;;;5.00;4.30;;;30.10;89.30;;;;;;4985617;28;20839;-65
2023/09/16 11:16:44;;;;;;;6.60;4.20;;;30.10;86.50;;;;;;4977568;28;20468;-65
2023/09/16 11:19:15;;;;;;;4.63;3.37;;;30.20;86.90;;;;;;4986748;28;20539;-65
2023/09/16 11:21:43;;;;;;;4.90;4.40;;;30.30;86.00;;;;;;4990947;28;20452;-65
2023/09/16 11:24:11;;;;;;;5.63;4.70;;;30.30;87.40;;;;;;4990679;28;20464;-66
2023/09/16 11:26:38;;;;;;;4.40;3.97;;;30.50;88.90;;;;;;4990926;28;20504;-66
2023/09/16 11:29:16;;;;;;;5.87;4.50;;;30.40;85.80;;;;;;4991403;28;20853;-66
2023/09/16 11:31:43;;;;;;;5.70;4.63;;;30.20;87.10;;;;;;4981231;28;20505;-66
2023/09/16 11:34:11;;;;;;;5.20;4.17;;;30.20;85.20;;;;;;4991894;28;20865;-66
2023/09/16 11:36:43;;;;;;;5.13;4.37;;;30.10;87.80;;;;;;4990984;28;20468;-66
2023/09/16 11:39:15;;;;;;;3.80;3.40;;;30.10;85.70;;;;;;4990839;28;20506;-65
2023/09/16 11:41:42;;;;;;;4.77;4.27;;;29.90;87.50;;;;;;4990953;28;20456;-65
2023/09/16 11:44:09;;;;;;;5.30;4.50;;;30.00;86.50;;;;;;4992083;28;20866;-66
2023/09/16 11:46:37;;;;;;;4.90;4.10;;;30.10;86.90;;;;;;4992984;28;20482;-65
2023/09/16 11:49:05;;;;;;;4.53;4.13;;;30.20;85.30;;;;;;4987021;28;20823;-65
2023/09/16 11:51:33;;;;;;;4.10;3.70;;;30.00;82.60;;;;;;4988809;28;20496;-65
2023/09/16 11:54:02;;;;;;;4.97;4.03;;;29.90;85.20;;;;;;4991657;28;20820;-66
2023/09/16 11:56:30;;;;;;;6.20;3.47;;;29.60;84.00;;;;;;4991913;28;20490;-66
2023/09/16 11:58:59;;;;;;;4.27;3.63;;;29.50;84.70;;;;;;4996812;28;20842;-65
2023/09/16 12:01:29;;;;;;;4.93;4.33;;;29.40;88.70;;;;;;4989390;28;20769;-65
2023/09/16 12:03:56;;;;;;;7.80;4.10;;;29.30;86.80;;;;;;4991338;28;20833;-66
2023/09/16 12:06:25;;;;;;;15.30;4.87;;;29.40;87.60;;;;;;4990160;28;20537;-66
2023/09/16 12:08:53;;;;;;;4.10;3.73;;;29.60;88.40;;;;;;4990021;28;20484;-66
2023/09/16 12:11:23;;;;;;;3.80;3.40;;;29.80;88.90;;;;;;4988690;28;20467;-66
2023/09/16 12:13:50;;;;;;;4.00;3.37;;;29.80;85.50;;;;;;4990870;28;21166;-66
2023/09/16 12:16:17;;;;;;;4.23;3.83;;;29.70;85.70;;;;;;4992138;28;20792;-66
2023/09/16 12:18:44;;;;;;;5.47;4.80;;;29.30;87.20;;;;;;4991090;28;20841;-65
2023/09/16 12:21:12;;;;;;;5.67;3.60;;;29.30;86.80;;;;;;4990761;28;20897;-65
2023/09/16 12:23:41;;;;;;;4.57;4.17;;;29.10;86.50;;;;;;4983551;28;20611;-66
2023/09/16 12:26:09;;;;;;;5.23;4.73;;;29.00;86.60;;;;;;4979980;28;20444;-66
2023/09/16 12:28:38;;;;;;;4.53;3.77;;;29.10;86.20;;;;;;4991638;28;20464;-66
2023/09/16 12:31:08;;;;;;;5.00;4.50;;;29.00;87.50;;;;;;4988883;28;20449;-66
2023/09/16 12:33:40;;;;;;;3.80;3.37;;;28.90;89.00;;;;;;4990487;28;20485;-66
2023/09/16 12:36:07;;;;;;;4.87;4.37;;;28.90;85.90;;;;;;4986970;28;20477;-65
2023/09/16 12:38:35;;;;;;;5.13;4.20;;;28.90;86.10;;;;;;4996867;28;20610;-65
2023/09/16 12:41:03;;;;;;;4.67;3.80;;;28.80;85.30;;;;;;4990193;28;20457;-65
2023/09/16 12:43:30;;;;;;;4.30;3.90;;;28.70;88.00;;;;;;4990444;28;20456;-65
2023/09/16 12:46:01;;;;;;;4.87;4.10;;;28.80;86.60;;;;;;4989075;28;20886;-65
2023/09/16 12:48:29;;;;;;;4.30;3.90;;;28.80;87.70;;;;;;4990840;28;20457;-66
2023/09/16 12:50:56;;;;;;;4.33;3.93;;;28.90;88.30;;;;;;4991065;28;20532;-66